Time;durP1;ratioP1;P1;durP2;ratioP2;P2;SDS_P1;SDS_P2;PMS_P1;PMS_P2;Temp;Humidity;BMP_temperature;BMP_pressure;BME280_temperature;BME280_humidity;BME280_pressure;Samples;Min_cycle;Max_cycle;Signal;HPM_P1;HPM_P2
2024/01/25 00:00:16;;;;;;;29.90;4.15;;;7.90;99.90;;;;;;4948945;28;20030;-73
2024/01/25 00:02:42;;;;;;;18.88;2.92;;;7.80;99.90;;;;;;4972796;28;20046;-76
2024/01/25 00:05:08;;;;;;;17.63;3.72;;;7.90;99.90;;;;;;4952634;28;20047;-73
2024/01/25 00:07:33;;;;;;;22.23;3.65;;;7.80;99.90;;;;;;4951391;28;20035;-73
2024/01/25 00:10:00;;;;;;;29.02;3.60;;;7.80;99.90;;;;;;4977380;28;20105;-73
2024/01/25 00:12:26;;;;;;;24.02;3.92;;;7.80;99.90;;;;;;4957874;28;20497;-73
2024/01/25 00:14:53;;;;;;;24.33;4.18;;;7.80;99.90;;;;;;4978372;28;20043;-74
2024/01/25 00:17:18;;;;;;;25.95;4.47;;;7.70;99.90;;;;;;4973999;28;20081;-74
2024/01/25 00:19:44;;;;;;;27.63;3.85;;;7.70;99.90;;;;;;4983921;28;20043;-72
2024/01/25 00:22:09;;;;;;;26.15;2.78;;;7.70;99.90;;;;;;4981129;28;20041;-74
2024/01/25 00:24:36;;;;;;;14.82;3.75;;;7.70;99.90;;;;;;4960964;28;20033;-73
2024/01/25 00:27:02;;;;;;;24.85;4.13;;;7.60;99.90;;;;;;4979326;28;20495;-73
2024/01/25 00:29:30;;;;;;;25.25;4.32;;;7.60;99.90;;;;;;4952368;28;24446;-73
2024/01/25 00:31:56;;;;;;;27.85;5.03;;;7.60;99.90;;;;;;4953520;28;20089;-73
2024/01/25 00:34:22;;;;;;;15.60;3.03;;;7.60;99.90;;;;;;4955366;28;20038;-74
2024/01/25 00:36:47;;;;;;;16.88;3.33;;;7.50;99.90;;;;;;4953311;28;20043;-73
2024/01/25 00:39:13;;;;;;;19.08;3.20;;;7.50;99.90;;;;;;4959620;28;20039;-74
2024/01/25 00:41:41;;;;;;;21.90;4.07;;;7.50;99.90;;;;;;4974957;28;20037;-74
2024/01/25 00:44:08;;;;;;;30.88;3.90;;;7.40;99.90;;;;;;4969502;28;20038;-73
2024/01/25 00:46:33;;;;;;;21.10;3.60;;;7.50;99.90;;;;;;4951677;28;20782;-73
2024/01/25 00:48:59;;;;;;;28.92;5.75;;;7.40;99.90;;;;;;4952489;28;20043;-73
2024/01/25 00:51:25;;;;;;;35.58;4.45;;;7.40;99.90;;;;;;4969013;28;20086;-73
2024/01/25 00:53:51;;;;;;;15.07;2.75;;;7.40;99.90;;;;;;4950805;28;20049;-73
2024/01/25 00:56:17;;;;;;;21.60;2.90;;;7.30;99.90;;;;;;4953511;28;20026;-73
2024/01/25 00:58:42;;;;;;;29.75;2.80;;;7.30;99.90;;;;;;4968743;28;20377;-74
2024/01/25 01:01:09;;;;;;;23.55;3.88;;;7.30;99.90;;;;;;4961657;28;20471;-72
2024/01/25 01:03:36;;;;;;;22.85;2.88;;;7.30;99.90;;;;;;4954461;28;20038;-73
2024/01/25 01:06:01;;;;;;;21.35;3.70;;;7.30;99.90;;;;;;4968852;28;20042;-72
2024/01/25 01:08:28;;;;;;;22.65;3.30;;;7.30;99.90;;;;;;4955976;28;20046;-73
2024/01/25 01:10:53;;;;;;;14.50;3.40;;;7.30;99.90;;;;;;4976106;28;20089;-73
2024/01/25 01:13:19;;;;;;;33.25;4.63;;;7.20;99.90;;;;;;4984051;28;20034;-73
2024/01/25 01:15:44;;;;;;;20.83;2.88;;;7.20;99.90;;;;;;4972554;28;20043;-73
2024/01/25 01:18:10;;;;;;;23.25;2.72;;;7.20;99.90;;;;;;4979163;28;20036;-73
2024/01/25 01:20:35;;;;;;;27.98;5.45;;;7.20;99.90;;;;;;4970953;28;20034;-74
2024/01/25 01:23:01;;;;;;;32.92;5.20;;;7.10;99.90;;;;;;4952342;28;20062;-73
2024/01/25 01:25:26;;;;;;;21.58;3.55;;;7.10;99.90;;;;;;4974677;28;20070;-73
2024/01/25 01:27:52;;;;;;;21.50;3.45;;;7.00;99.90;;;;;;4979125;28;20122;-72
2024/01/25 01:30:17;;;;;;;27.92;3.97;;;7.00;99.90;;;;;;4947402;28;20066;-73
2024/01/25 01:32:43;;;;;;;24.65;4.25;;;6.90;99.90;;;;;;4962030;28;20487;-73
2024/01/25 01:35:08;;;;;;;18.33;3.22;;;6.90;99.90;;;;;;4953623;28;20043;-76
2024/01/25 01:37:34;;;;;;;23.50;3.17;;;6.90;99.90;;;;;;4974787;28;20104;-74
2024/01/25 01:39:59;;;;;;;24.70;3.97;;;6.90;99.90;;;;;;4969254;28;20085;-73
2024/01/25 01:42:27;;;;;;;20.50;3.15;;;6.80;99.90;;;;;;4975055;28;20050;-73
2024/01/25 01:44:53;;;;;;;25.05;3.92;;;6.80;99.90;;;;;;4950304;28;20039;-73
2024/01/25 01:47:19;;;;;;;21.88;4.03;;;6.80;99.90;;;;;;4967408;28;20697;-74
2024/01/25 01:49:45;;;;;;;25.98;4.47;;;6.80;99.90;;;;;;4958655;28;20046;-74
2024/01/25 01:52:11;;;;;;;21.75;3.65;;;6.80;99.90;;;;;;4956411;28;20039;-74
2024/01/25 01:54:37;;;;;;;34.75;4.15;;;6.70;99.90;;;;;;4966941;28;20038;-73
2024/01/25 01:57:04;;;;;;;22.35;3.63;;;6.70;99.90;;;;;;4952403;28;20042;-73
2024/01/25 01:59:30;;;;;;;24.25;3.35;;;6.70;99.90;;;;;;4975204;28;20038;-73
2024/01/25 02:01:56;;;;;;;18.42;3.13;;;6.60;99.90;;;;;;4982889;28;20038;-73
2024/01/25 02:04:21;;;;;;;23.75;3.28;;;6.70;99.90;;;;;;4961842;28;20557;-73
2024/01/25 02:06:47;;;;;;;22.60;2.28;;;6.70;99.90;;;;;;4977381;28;20098;-73
2024/01/25 02:09:13;;;;;;;17.15;3.20;;;6.60;99.90;;;;;;4973075;28;20109;-73
2024/01/25 02:11:38;;;;;;;31.98;4.93;;;6.60;99.90;;;;;;4971619;28;20035;-72
2024/01/25 02:14:05;;;;;;;20.63;2.78;;;6.50;99.90;;;;;;4965028;28;20088;-73
2024/01/25 02:16:30;;;;;;;23.65;3.92;;;6.50;99.90;;;;;;4949322;28;20345;-73
2024/01/25 02:18:57;;;;;;;23.25;3.55;;;6.40;99.90;;;;;;4969638;28;20549;-73
2024/01/25 02:21:23;;;;;;;42.78;5.00;;;6.40;99.90;;;;;;4982446;28;20039;-73
2024/01/25 02:23:50;;;;;;;27.25;3.22;;;6.30;99.90;;;;;;4981361;28;20080;-73
2024/01/25 02:26:15;;;;;;;20.80;4.00;;;6.30;99.90;;;;;;4985361;28;20034;-74
2024/01/25 02:28:41;;;;;;;23.63;4.05;;;6.20;99.90;;;;;;4953205;28;20045;-74
2024/01/25 02:31:06;;;;;;;27.38;4.63;;;6.20;99.90;;;;;;4958280;28;20411;-74
2024/01/25 02:33:32;;;;;;;30.30;3.63;;;6.10;99.90;;;;;;4958085;28;20495;-74
2024/01/25 02:35:57;;;;;;;37.10;3.97;;;6.10;99.90;;;;;;4950011;28;20049;-74
2024/01/25 02:38:23;;;;;;;18.13;3.85;;;6.10;99.90;;;;;;4958604;28;20041;-74
2024/01/25 02:40:49;;;;;;;18.08;2.85;;;6.00;99.90;;;;;;4967054;28;20664;-73
2024/01/25 02:43:14;;;;;;;18.77;2.08;;;6.00;99.90;;;;;;4974415;28;20418;-74
2024/01/25 02:45:40;;;;;;;24.48;5.50;;;5.90;99.90;;;;;;4965348;28;20050;-73
2024/01/25 02:48:06;;;;;;;14.13;2.22;;;5.90;99.90;;;;;;4966378;28;20035;-73
2024/01/25 02:50:31;;;;;;;13.90;2.17;;;5.90;99.90;;;;;;4952675;28;20067;-73
2024/01/25 02:52:58;;;;;;;15.40;2.60;;;5.80;99.90;;;;;;4949026;28;20459;-73
2024/01/25 02:55:23;;;;;;;24.85;3.78;;;5.80;99.90;;;;;;4962407;28;20666;-74
2024/01/25 02:57:49;;;;;;;27.33;3.50;;;5.80;99.90;;;;;;4975865;28;20062;-73
2024/01/25 03:00:15;;;;;;;13.65;2.92;;;5.70;99.90;;;;;;4950579;28;20042;-73
2024/01/25 03:02:40;;;;;;;20.52;3.47;;;5.70;99.90;;;;;;4958636;28;20042;-73
2024/01/25 03:05:06;;;;;;;13.77;3.60;;;5.70;99.90;;;;;;4968103;28;20051;-73
2024/01/25 03:07:31;;;;;;;20.17;2.92;;;5.60;99.90;;;;;;4955384;28;20035;-73
2024/01/25 03:09:57;;;;;;;18.42;2.55;;;5.60;99.90;;;;;;4973605;28;20042;-73
2024/01/25 03:12:22;;;;;;;20.38;3.40;;;5.60;99.90;;;;;;4974236;28;20097;-75
2024/01/25 03:14:48;;;;;;;16.70;2.38;;;5.50;99.90;;;;;;4949251;28;20456;-73
2024/01/25 03:17:14;;;;;;;22.20;3.53;;;5.50;99.90;;;;;;4975910;28;20040;-74
2024/01/25 03:19:39;;;;;;;24.08;3.70;;;5.40;99.90;;;;;;4949375;28;20039;-73
2024/01/25 03:22:05;;;;;;;19.73;3.58;;;5.40;99.90;;;;;;4950010;28;20487;-73
2024/01/25 03:24:30;;;;;;;18.13;3.38;;;5.40;99.90;;;;;;4976032;28;20052;-73
2024/01/25 03:26:56;;;;;;;20.63;3.50;;;5.40;99.90;;;;;;4962703;28;20064;-75
2024/01/25 03:29:21;;;;;;;22.40;3.35;;;5.30;99.90;;;;;;4973409;28;20403;-75
2024/01/25 03:31:47;;;;;;;9.80;2.15;;;5.30;99.90;;;;;;4950025;28;20044;-75
2024/01/25 03:34:13;;;;;;;22.00;2.65;;;5.30;99.90;;;;;;4949367;28;20090;-75
2024/01/25 03:36:41;;;;;;;24.13;3.67;;;5.20;99.90;;;;;;4951385;28;20027;-75
2024/01/25 03:39:07;;;;;;;14.73;2.10;;;5.20;99.90;;;;;;4961779;28;20046;-75
2024/01/25 03:41:33;;;;;;;19.27;4.05;;;5.10;99.90;;;;;;4953051;28;20469;-74
2024/01/25 03:43:58;;;;;;;19.77;2.53;;;5.10;99.90;;;;;;4975765;28;20121;-73
2024/01/25 03:46:24;;;;;;;20.75;3.33;;;5.10;99.90;;;;;;4955413;28;20050;-75
2024/01/25 03:48:49;;;;;;;15.18;3.95;;;5.10;99.90;;;;;;4959047;28;20491;-75
2024/01/25 03:51:16;;;;;;;24.08;3.40;;;5.10;99.90;;;;;;4960465;28;20639;-75
2024/01/25 03:53:42;;;;;;;19.50;4.55;;;5.10;99.90;;;;;;4972600;28;20039;-75
2024/01/25 03:56:17;;;;;;;17.05;2.78;;;5.00;99.90;;;;;;4962062;28;20035;-75
2024/01/25 03:58:42;;;;;;;20.80;3.97;;;5.00;99.90;;;;;;4963906;28;20518;-74
2024/01/25 04:01:09;;;;;;;23.20;3.60;;;5.00;99.90;;;;;;4962413;28;20043;-75
2024/01/25 04:03:34;;;;;;;18.42;3.95;;;5.00;99.90;;;;;;4985354;28;20034;-75
2024/01/25 04:06:00;;;;;;;21.65;3.10;;;5.00;99.90;;;;;;4978844;28;20042;-75
2024/01/25 04:08:25;;;;;;;22.70;3.20;;;4.90;99.90;;;;;;4975015;28;20135;-74
2024/01/25 04:10:51;;;;;;;23.75;2.33;;;4.90;99.90;;;;;;4959605;28;20096;-74
2024/01/25 04:13:17;;;;;;;18.52;3.83;;;4.90;99.90;;;;;;4980292;28;20061;-75
2024/01/25 04:15:42;;;;;;;17.05;3.60;;;4.80;99.90;;;;;;4955789;28;20435;-76
2024/01/25 04:18:08;;;;;;;22.92;4.30;;;4.80;99.90;;;;;;4954137;28;20129;-74
2024/01/25 04:20:34;;;;;;;20.73;3.20;;;4.80;99.90;;;;;;4966740;28;20034;-74
2024/01/25 04:22:59;;;;;;;10.80;1.95;;;4.80;99.90;;;;;;4960318;28;20051;-75
2024/01/25 04:25:25;;;;;;;15.65;4.00;;;4.80;99.90;;;;;;4960730;28;20805;-75
2024/01/25 04:27:51;;;;;;;17.55;3.00;;;4.70;99.90;;;;;;4952984;28;20466;-73
2024/01/25 04:30:17;;;;;;;27.05;3.95;;;4.60;99.90;;;;;;4951621;28;20043;-75
2024/01/25 04:32:42;;;;;;;22.23;3.05;;;4.60;99.90;;;;;;4960053;28;20635;-75
2024/01/25 04:35:11;;;;;;;20.95;3.55;;;4.60;99.90;;;;;;4977391;28;20869;-75
2024/01/25 04:37:36;;;;;;;19.67;3.78;;;4.50;99.90;;;;;;4955999;28;20410;-75
2024/01/25 04:40:02;;;;;;;23.92;3.35;;;4.50;99.90;;;;;;4953369;28;20035;-75
2024/01/25 04:42:28;;;;;;;14.25;3.58;;;4.50;99.90;;;;;;4987624;28;20825;-72
2024/01/25 04:44:54;;;;;;;27.17;3.35;;;4.50;99.90;;;;;;4978892;28;20030;-75
2024/01/25 04:47:19;;;;;;;18.38;2.88;;;4.50;99.90;;;;;;4957950;28;20061;-72
2024/01/25 04:49:45;;;;;;;21.42;2.97;;;4.50;99.90;;;;;;4969293;28;20087;-75
2024/01/25 04:52:10;;;;;;;37.60;6.22;;;4.50;99.90;;;;;;4968239;28;20101;-73
2024/01/25 04:54:36;;;;;;;22.20;3.63;;;4.40;99.90;;;;;;4976802;28;20062;-74
2024/01/25 04:57:06;;;;;;;23.27;2.88;;;4.40;99.90;;;;;;4956995;28;20035;-75
2024/01/25 04:59:32;;;;;;;15.10;2.35;;;4.40;99.90;;;;;;4962328;28;20038;-75
2024/01/25 05:01:58;;;;;;;24.50;3.55;;;4.30;99.90;;;;;;4961357;28;20039;-73
2024/01/25 05:04:24;;;;;;;17.50;2.33;;;4.30;99.90;;;;;;4962937;28;20039;-73
2024/01/25 05:06:49;;;;;;;27.90;4.20;;;4.30;99.90;;;;;;4975429;28;20035;-75
2024/01/25 05:09:15;;;;;;;13.48;2.20;;;4.20;99.90;;;;;;4977498;28;20160;-75
2024/01/25 05:11:40;;;;;;;16.17;2.60;;;4.20;99.90;;;;;;4962478;28;20510;-74
2024/01/25 05:14:06;;;;;;;22.10;3.88;;;4.20;99.90;;;;;;4970271;28;20435;-71
2024/01/25 05:16:32;;;;;;;23.08;3.65;;;4.20;99.90;;;;;;4962158;28;20061;-75
2024/01/25 05:18:58;;;;;;;23.75;4.22;;;4.20;99.90;;;;;;4959086;28;20066;-74
2024/01/25 05:21:23;;;;;;;19.33;2.88;;;4.20;99.90;;;;;;4952949;28;20527;-75
2024/01/25 05:23:49;;;;;;;18.65;4.43;;;4.20;99.90;;;;;;4973807;28;20069;-73
2024/01/25 05:26:15;;;;;;;27.92;3.63;;;4.20;99.90;;;;;;4953165;28;20030;-76
2024/01/25 05:28:41;;;;;;;26.67;4.45;;;4.20;99.90;;;;;;4976009;28;20041;-74
2024/01/25 05:31:12;;;;;;;12.20;3.33;;;4.20;99.90;;;;;;4984310;28;20046;-74
2024/01/25 05:33:41;;;;;;;21.80;2.85;;;4.20;99.90;;;;;;4967800;28;20031;-73
2024/01/25 05:36:07;;;;;;;25.70;4.80;;;4.20;99.90;;;;;;4953351;28;20035;-74
2024/01/25 05:38:33;;;;;;;13.18;2.60;;;4.20;99.90;;;;;;4961284;28;20122;-75
2024/01/25 05:40:59;;;;;;;25.33;3.38;;;4.20;99.90;;;;;;4962608;28;20109;-74
2024/01/25 05:43:25;;;;;;;24.13;5.07;;;4.20;99.90;;;;;;4969269;28;20046;-71
2024/01/25 05:45:50;;;;;;;26.20;3.55;;;4.20;99.90;;;;;;4976905;28;20042;-73
2024/01/25 05:48:16;;;;;;;18.90;3.47;;;4.20;99.90;;;;;;4963868;28;20050;-73
2024/01/25 05:50:41;;;;;;;22.20;3.88;;;4.20;99.90;;;;;;4958394;28;20039;-72
2024/01/25 05:53:07;;;;;;;27.48;5.82;;;4.20;99.90;;;;;;4951944;28;20043;-73
2024/01/25 05:55:32;;;;;;;22.17;5.03;;;4.20;99.90;;;;;;4962607;28;20525;-74
2024/01/25 05:57:58;;;;;;;21.33;5.40;;;4.20;99.90;;;;;;4952488;28;20042;-74
2024/01/25 06:00:23;;;;;;;34.03;7.43;;;4.20;99.90;;;;;;4973120;28;20038;-71
2024/01/25 06:02:49;;;;;;;29.00;6.93;;;4.20;99.90;;;;;;4976678;28;20046;-74
2024/01/25 06:05:15;;;;;;;36.25;8.13;;;4.30;99.90;;;;;;4949120;28;20649;-71
2024/01/25 06:07:40;;;;;;;23.02;6.32;;;4.30;99.90;;;;;;4969116;28;20447;-74
2024/01/25 06:10:07;;;;;;;26.38;7.75;;;4.30;99.90;;;;;;4965189;28;20055;-73
2024/01/25 06:12:33;;;;;;;22.77;6.43;;;4.30;99.90;;;;;;4970234;28;20098;-75
2024/01/25 06:14:58;;;;;;;24.83;5.75;;;4.30;99.90;;;;;;4955410;28;20038;-74
2024/01/25 06:17:24;;;;;;;27.23;6.35;;;4.30;99.90;;;;;;4958031;28;20043;-73
2024/01/25 06:19:49;;;;;;;30.77;4.97;;;4.20;99.90;;;;;;4962408;28;20042;-71
2024/01/25 06:22:16;;;;;;;28.10;5.95;;;4.20;99.90;;;;;;4948808;28;20049;-73
2024/01/25 06:24:42;;;;;;;23.98;4.50;;;4.20;99.90;;;;;;4948473;28;20589;-72
2024/01/25 06:27:11;;;;;;;19.55;4.43;;;4.20;99.90;;;;;;4953932;28;20026;-73
2024/01/25 06:29:37;;;;;;;29.70;5.43;;;4.10;99.90;;;;;;4950299;28;20122;-73
2024/01/25 06:32:03;;;;;;;29.45;5.10;;;4.10;99.90;;;;;;4949586;28;20114;-73
2024/01/25 06:34:28;;;;;;;19.35;4.20;;;4.10;99.90;;;;;;4950703;28;20395;-74
2024/01/25 06:36:54;;;;;;;22.27;4.35;;;4.10;99.90;;;;;;4950686;28;20038;-75
2024/01/25 06:39:19;;;;;;;29.05;5.80;;;4.00;99.90;;;;;;4972389;28;20038;-73
2024/01/25 06:41:45;;;;;;;28.27;4.97;;;4.00;99.90;;;;;;4963029;28;20056;-72
2024/01/25 06:44:10;;;;;;;35.65;4.75;;;4.00;99.90;;;;;;4962502;28;20050;-71
2024/01/25 06:46:36;;;;;;;25.45;5.10;;;4.00;99.90;;;;;;4954678;28;20034;-73
2024/01/25 06:49:02;;;;;;;20.80;3.90;;;4.00;99.90;;;;;;4984111;28;20154;-72
2024/01/25 06:51:28;;;;;;;25.38;4.93;;;4.00;99.90;;;;;;4972885;28;20130;-74
2024/01/25 06:53:54;;;;;;;31.65;5.47;;;4.00;99.90;;;;;;4955784;28;20065;-75
2024/01/25 06:56:19;;;;;;;15.07;3.45;;;4.00;99.90;;;;;;4954705;28;20027;-71
2024/01/25 06:58:45;;;;;;;18.33;4.50;;;4.00;99.90;;;;;;4962543;28;20035;-74
2024/01/25 07:01:10;;;;;;;26.83;5.03;;;4.00;99.90;;;;;;4950386;28;20759;-73
2024/01/25 07:03:36;;;;;;;21.60;3.67;;;4.00;99.90;;;;;;4972852;28;20084;-74
2024/01/25 07:06:02;;;;;;;21.65;4.53;;;4.00;99.90;;;;;;4959401;28;20039;-74
2024/01/25 07:08:27;;;;;;;23.42;3.75;;;4.00;99.90;;;;;;4958638;28;20046;-74
2024/01/25 07:10:53;;;;;;;22.88;4.72;;;4.00;99.90;;;;;;4960903;28;20043;-74
2024/01/25 07:13:18;;;;;;;23.40;4.20;;;4.00;99.90;;;;;;4965195;28;20042;-74
2024/01/25 07:15:44;;;;;;;32.58;3.95;;;4.10;99.90;;;;;;4965700;28;20045;-74
2024/01/25 07:18:11;;;;;;;16.98;3.58;;;4.10;99.90;;;;;;4948575;28;20027;-72
2024/01/25 07:20:36;;;;;;;35.20;4.00;;;4.10;99.90;;;;;;4971404;28;20034;-73
2024/01/25 07:23:02;;;;;;;23.55;3.65;;;4.10;99.90;;;;;;4948957;28;20824;-73
2024/01/25 07:25:27;;;;;;;26.00;4.32;;;4.10;99.90;;;;;;4973358;28;20129;-73
2024/01/25 07:27:53;;;;;;;34.75;4.38;;;4.10;99.90;;;;;;4967522;28;20725;-72
2024/01/25 07:30:18;;;;;;;29.83;3.55;;;4.10;99.90;;;;;;4966676;28;20045;-73
2024/01/25 07:32:45;;;;;;;20.73;4.97;;;4.10;99.90;;;;;;4966414;28;20049;-73
2024/01/25 07:35:12;;;;;;;20.75;3.33;;;4.10;99.90;;;;;;4971538;28;20538;-74
2024/01/25 07:37:38;;;;;;;24.95;3.13;;;4.10;99.90;;;;;;4956969;28;20093;-73
2024/01/25 07:40:05;;;;;;;23.27;3.60;;;4.10;99.90;;;;;;4958122;28;20034;-73
2024/01/25 07:42:30;;;;;;;20.25;4.30;;;4.10;99.90;;;;;;4956468;28;20921;-73
2024/01/25 07:44:56;;;;;;;20.60;3.67;;;4.10;99.90;;;;;;4966779;28;20035;-73
2024/01/25 07:47:21;;;;;;;14.13;2.97;;;4.10;99.90;;;;;;4966120;28;20121;-72
2024/01/25 07:49:48;;;;;;;19.75;3.60;;;4.10;99.90;;;;;;4965665;28;20125;-72
2024/01/25 07:52:14;;;;;;;28.02;4.97;;;4.10;99.90;;;;;;4952301;28;20032;-73
2024/01/25 07:54:39;;;;;;;25.40;4.50;;;4.20;99.90;;;;;;4956885;28;20035;-73
2024/01/25 07:57:05;;;;;;;23.50;5.22;;;4.20;99.90;;;;;;4978397;28;20045;-73
2024/01/25 07:59:30;;;;;;;40.22;5.97;;;4.30;99.90;;;;;;4972910;28;20027;-73
2024/01/25 08:01:56;;;;;;;23.15;5.15;;;4.30;99.90;;;;;;4966936;28;20035;-73
2024/01/25 08:04:21;;;;;;;23.30;4.10;;;4.40;99.90;;;;;;4948395;28;20034;-73
2024/01/25 08:06:47;;;;;;;25.58;4.47;;;4.40;99.90;;;;;;4969223;28;20023;-73
2024/01/25 08:09:13;;;;;;;26.38;4.85;;;4.50;99.90;;;;;;4981457;28;20457;-73
2024/01/25 08:11:39;;;;;;;21.90;4.20;;;4.40;99.90;;;;;;4970157;28;20039;-72
2024/01/25 08:14:05;;;;;;;27.90;5.13;;;4.50;99.90;;;;;;4978332;28;20034;-72
2024/01/25 08:16:30;;;;;;;26.65;4.93;;;4.50;99.90;;;;;;4972177;28;20424;-73
2024/01/25 08:18:56;;;;;;;28.35;4.43;;;4.50;99.90;;;;;;4959641;28;20034;-73
2024/01/25 08:21:21;;;;;;;28.55;3.70;;;4.50;99.90;;;;;;4976690;28;20023;-73
2024/01/25 08:23:47;;;;;;;27.58;4.45;;;4.50;99.90;;;;;;4950879;28;20051;-73
2024/01/25 08:26:13;;;;;;;35.38;4.63;;;4.50;99.90;;;;;;4961317;28;20038;-74
2024/01/25 08:28:45;;;;;;;20.95;3.47;;;4.60;99.90;;;;;;4956893;28;20039;-73
2024/01/25 08:31:11;;;;;;;19.40;2.83;;;4.60;99.90;;;;;;4984915;28;20558;-71
2024/01/25 08:33:38;;;;;;;22.17;3.63;;;4.60;99.90;;;;;;4972373;28;20042;-75
2024/01/25 08:36:04;;;;;;;31.85;3.15;;;4.70;99.90;;;;;;4973483;28;20392;-74
2024/01/25 08:38:29;;;;;;;38.05;4.80;;;4.80;99.90;;;;;;4969362;28;20046;-72
2024/01/25 08:40:55;;;;;;;25.02;3.28;;;4.80;99.90;;;;;;4956926;28;20439;-73
2024/01/25 08:43:21;;;;;;;24.23;3.33;;;4.80;99.90;;;;;;4963929;28;20042;-75
2024/01/25 08:45:46;;;;;;;22.65;3.42;;;4.90;99.90;;;;;;4986818;28;20049;-72
2024/01/25 08:48:13;;;;;;;17.77;3.60;;;4.90;99.90;;;;;;4972963;28;20049;-72
2024/01/25 08:50:39;;;;;;;21.45;3.50;;;5.00;99.90;;;;;;4962187;28;20060;-72
2024/01/25 08:53:05;;;;;;;16.25;4.07;;;5.10;99.90;;;;;;4972331;28;20495;-72
2024/01/25 08:55:31;;;;;;;22.08;3.83;;;5.10;99.90;;;;;;4981872;28;20047;-73
2024/01/25 08:57:56;;;;;;;24.92;5.07;;;5.20;99.90;;;;;;4953545;28;20027;-72
2024/01/25 09:00:22;;;;;;;29.00;4.28;;;5.30;99.90;;;;;;4977267;28;20038;-74
2024/01/25 09:02:47;;;;;;;21.70;4.05;;;5.30;99.90;;;;;;4972692;28;20047;-73
2024/01/25 09:05:13;;;;;;;25.95;4.07;;;5.40;99.90;;;;;;4971571;28;20034;-74
2024/01/25 09:07:38;;;;;;;22.83;3.75;;;5.50;99.90;;;;;;4978920;28;20058;-74
2024/01/25 09:10:05;;;;;;;32.10;5.70;;;5.50;99.90;;;;;;4957682;28;20062;-73
2024/01/25 09:12:30;;;;;;;28.95;3.67;;;5.60;99.90;;;;;;4972222;28;20043;-73
2024/01/25 09:14:56;;;;;;;24.05;3.45;;;5.70;99.90;;;;;;4962547;28;20396;-72
2024/01/25 09:17:21;;;;;;;22.35;3.72;;;5.70;99.90;;;;;;4955610;28;20038;-72
2024/01/25 09:19:51;;;;;;;21.40;3.55;;;5.70;99.90;;;;;;4977231;28;20128;-73
2024/01/25 09:22:19;;;;;;;31.60;5.70;;;5.80;99.90;;;;;;4957287;28;20042;-73
2024/01/25 09:24:45;;;;;;;36.17;7.13;;;5.80;99.90;;;;;;4958632;28;20097;-72
2024/01/25 09:27:12;;;;;;;35.42;4.60;;;5.90;99.90;;;;;;4962880;28;20058;-72
2024/01/25 09:29:39;;;;;;;23.63;4.25;;;5.90;99.90;;;;;;4961379;28;20062;-72
2024/01/25 09:32:06;;;;;;;32.38;5.20;;;5.90;99.90;;;;;;4979166;28;20038;-74
2024/01/25 09:34:31;;;;;;;24.20;4.25;;;5.90;99.90;;;;;;4955625;28;20034;-74
2024/01/25 09:36:57;;;;;;;21.83;4.15;;;6.00;99.90;;;;;;4962855;28;20037;-73
2024/01/25 09:39:22;;;;;;;21.38;4.10;;;6.00;99.90;;;;;;4962102;28;20061;-73
2024/01/25 09:41:48;;;;;;;28.15;4.75;;;6.10;99.90;;;;;;4966769;28;20757;-73
2024/01/25 09:44:14;;;;;;;19.83;3.55;;;6.10;99.90;;;;;;4967720;28;20053;-73
2024/01/25 09:46:41;;;;;;;20.05;3.17;;;6.10;99.90;;;;;;4959392;28;20737;-74
2024/01/25 09:49:07;;;;;;;24.80;3.15;;;6.20;99.90;;;;;;4962695;28;20060;-73
2024/01/25 09:51:37;;;;;;;17.73;3.97;;;6.30;99.90;;;;;;4966985;28;20026;-73
2024/01/25 09:54:06;;;;;;;29.40;3.58;;;6.30;99.90;;;;;;4958417;28;20038;-73
2024/01/25 09:56:33;;;;;;;19.25;4.93;;;6.40;99.90;;;;;;4967589;28;20106;-74
2024/01/25 09:59:00;;;;;;;24.65;3.92;;;6.40;99.90;;;;;;4959300;28;20062;-74
2024/01/25 10:01:26;;;;;;;18.60;3.33;;;6.50;99.90;;;;;;4977387;28;20073;-73
2024/01/25 10:03:52;;;;;;;14.43;3.13;;;6.60;99.90;;;;;;4975605;28;20126;-74
2024/01/25 10:06:18;;;;;;;26.65;3.95;;;6.60;99.90;;;;;;4957215;28;20129;-74
2024/01/25 10:08:45;;;;;;;22.25;3.88;;;6.70;99.90;;;;;;4954098;28;20037;-75
2024/01/25 10:11:14;;;;;;;10.57;2.33;;;6.80;99.90;;;;;;4983298;28;20139;-75
2024/01/25 10:13:47;;;;;;;20.27;2.90;;;6.90;99.90;;;;;;4950337;28;20033;-74
2024/01/25 10:16:14;;;;;;;22.50;4.07;;;6.90;99.90;;;;;;4969165;28;20031;-74
2024/01/25 10:18:45;;;;;;;21.70;4.00;;;7.00;99.90;;;;;;4984618;28;20030;-74
2024/01/25 10:21:12;;;;;;;35.80;4.65;;;7.00;99.90;;;;;;4977389;28;20041;-73
2024/01/25 10:23:38;;;;;;;19.63;4.05;;;7.10;99.90;;;;;;4963986;28;20069;-75
2024/01/25 10:26:04;;;;;;;21.55;3.78;;;7.10;99.90;;;;;;4981737;28;20038;-74
2024/01/25 10:28:31;;;;;;;16.80;3.53;;;7.20;99.90;;;;;;4966902;28;20376;-74
2024/01/25 10:31:01;;;;;;;26.35;4.07;;;7.20;99.90;;;;;;4976676;28;20121;-74
2024/01/25 10:33:27;;;;;;;17.70;3.55;;;7.20;99.90;;;;;;4963663;28;20477;-75
2024/01/25 10:36:02;;;;;;;20.70;3.00;;;7.30;99.90;;;;;;4961856;28;20109;-72
2024/01/25 10:38:32;;;;;;;24.33;5.88;;;7.30;99.90;;;;;;4979960;28;20034;-74
2024/01/25 10:41:03;;;;;;;20.45;3.42;;;7.30;99.90;;;;;;4958171;28;20153;-73
2024/01/25 10:43:30;;;;;;;;;;;7.30;99.90;;;;;;4957361;28;20043;-74
2024/01/25 10:45:58;;;;;;;28.38;5.82;;;7.30;99.90;;;;;;4973809;28;19920;-74
2024/01/25 10:48:27;;;;;;;24.70;4.32;;;7.30;99.90;;;;;;4972832;28;20035;-76
2024/01/25 10:50:54;;;;;;;36.70;5.70;;;7.40;99.90;;;;;;4948590;28;20399;-73
2024/01/25 10:53:20;;;;;;;26.60;4.90;;;7.40;99.90;;;;;;4967042;28;20118;-74
2024/01/25 10:55:46;;;;;;;31.55;5.60;;;7.40;99.90;;;;;;4955315;28;20093;-74
2024/01/25 10:58:13;;;;;;;29.80;5.10;;;7.50;99.90;;;;;;4970488;28;20075;-74
2024/01/25 11:00:39;;;;;;;21.73;4.03;;;7.50;99.90;;;;;;4966594;28;20034;-75
2024/01/25 11:03:06;;;;;;;30.02;3.75;;;7.60;99.90;;;;;;4980994;28;20517;-73
2024/01/25 11:05:32;;;;;;;19.08;4.72;;;7.60;99.90;;;;;;4948621;28;20026;-75
2024/01/25 11:07:58;;;;;;;21.35;4.60;;;7.60;99.90;;;;;;4951414;28;20034;-74
2024/01/25 11:10:27;;;;;;;19.92;4.90;;;7.60;99.90;;;;;;4955366;28;20078;-73
2024/01/25 11:12:58;;;;;;;31.05;5.10;;;7.70;99.90;;;;;;4971393;28;20042;-74
2024/01/25 11:15:35;;;;;;;20.63;3.92;;;7.70;99.90;;;;;;4983907;28;20026;-75
2024/01/25 11:18:08;;;;;;;27.27;4.68;;;7.80;99.90;;;;;;4951802;28;20041;-74
2024/01/25 11:20:34;;;;;;;26.02;5.10;;;7.80;99.90;;;;;;4957296;28;20043;-73
2024/01/25 11:23:08;;;;;;;25.42;5.35;;;7.80;99.90;;;;;;4958037;28;20095;-75
2024/01/25 11:25:35;;;;;;;24.02;3.22;;;7.70;99.90;;;;;;4961526;28;20039;-74
2024/01/25 11:28:02;;;;;;;19.35;5.07;;;7.70;99.90;;;;;;4959990;28;20108;-73
2024/01/25 11:30:30;;;;;;;32.13;4.03;;;7.70;99.90;;;;;;4976923;28;20522;-73
2024/01/25 11:32:56;;;;;;;19.08;3.78;;;7.80;99.90;;;;;;4976614;28;20038;-73
2024/01/25 11:35:22;;;;;;;25.20;4.93;;;7.80;99.90;;;;;;4975026;28;20394;-73
2024/01/25 11:37:49;;;;;;;23.73;4.40;;;7.90;99.90;;;;;;4957772;28;20105;-73
2024/01/25 11:40:15;;;;;;;21.23;4.00;;;8.00;99.90;;;;;;4960361;28;20045;-74
2024/01/25 11:42:48;;;;;;;25.90;4.07;;;8.00;99.90;;;;;;4956029;28;20089;-73
2024/01/25 11:45:15;;;;;;;19.75;3.83;;;8.10;99.90;;;;;;4977808;28;20552;-73
2024/01/25 11:47:42;;;;;;;20.40;5.70;;;8.00;99.90;;;;;;4977908;28;20117;-74
2024/01/25 11:50:09;;;;;;;20.92;4.25;;;8.00;99.90;;;;;;4982357;28;20034;-73
2024/01/25 11:52:35;;;;;;;25.60;4.35;;;8.00;99.90;;;;;;4978865;28;20023;-73
2024/01/25 11:55:06;;;;;;;16.80;4.20;;;8.00;99.90;;;;;;4968901;28;20030;-73
2024/01/25 11:57:37;;;;;;;26.40;4.40;;;8.10;99.90;;;;;;4951910;28;20158;-74
2024/01/25 12:00:05;;;;;;;21.92;4.35;;;8.00;99.90;;;;;;4965490;28;20062;-73
2024/01/25 12:02:31;;;;;;;28.08;6.32;;;8.10;99.90;;;;;;4975022;28;20050;-74
2024/01/25 12:04:57;;;;;;;30.50;4.35;;;8.10;99.90;;;;;;4962494;28;20023;-72
2024/01/25 12:07:23;;;;;;;30.90;7.45;;;8.10;99.90;;;;;;4979511;28;20581;-74
2024/01/25 12:10:04;;;;;;;24.83;6.10;;;8.10;99.90;;;;;;4960941;28;20034;-74
2024/01/25 12:12:29;;;;;;;30.13;4.30;;;8.10;99.90;;;;;;4962842;28;20058;-73
2024/01/25 12:14:59;;;;;;;27.85;6.30;;;8.10;99.90;;;;;;4982306;28;20265;-75
2024/01/25 12:17:27;;;;;;;27.77;5.20;;;8.10;99.90;;;;;;4975896;28;20034;-75
2024/01/25 12:19:55;;;;;;;29.15;4.35;;;8.10;99.90;;;;;;4959778;28;20089;-74
2024/01/25 12:22:22;;;;;;;34.08;5.85;;;8.10;99.90;;;;;;4951162;28;20042;-74
2024/01/25 12:24:48;;;;;;;28.15;5.65;;;8.20;99.90;;;;;;4960060;28;20078;-73
2024/01/25 12:27:15;;;;;;;29.95;6.05;;;8.30;99.90;;;;;;4956197;28;20061;-76
2024/01/25 12:29:40;;;;;;;21.60;4.78;;;8.30;99.90;;;;;;4968487;28;20865;-73
2024/01/25 12:32:06;;;;;;;21.27;5.35;;;8.30;99.90;;;;;;4956355;28;20031;-73
2024/01/25 12:34:32;;;;;;;18.27;4.57;;;8.30;99.90;;;;;;4960301;28;20081;-74
2024/01/25 12:36:59;;;;;;;22.30;4.55;;;8.40;99.90;;;;;;4955511;28;20029;-72
2024/01/25 12:39:24;;;;;;;20.48;4.15;;;8.40;99.90;;;;;;4961459;28;20486;-73
2024/01/25 12:41:50;;;;;;;25.63;4.82;;;8.40;99.90;;;;;;4972677;28;20035;-73